首页
METAR-TAF:

METAR-TAF

机场 :

埃森博阿国际机场

安卡拉埃森博阿, 土耳其

纬度: 40-07N, 经度: 032-59E, 海拔: 953米

当前天气观测

该预报发布于28分钟前的11:20 UTC
风速8节,风向南转西南
温度 23°C
湿度 33%
气压 1017 hPa
能见度10公里或以上
散云层高于4000英尺
多云层高于18000英尺

METAR: LTAC 191120Z 21008KT 9999 SCT040 BKN180 23/06 Q1017 NOSIG RMK RWY21L 21009KT RWY03L 19008KT 160V220 RWY21R 21009KT 180V250

时间: 14:48 (11:48 UTC)

预报

该预报发布于1小时和8分钟前的10:40 UTC
预报有效从19日的 12点(UTC)到 20日的 12点(UTC)
风速2节,风向多变
能见度10公里或以上
散云层高于3500英尺
短暂存在
从 19日的 14点(UTC)到 19日的 18点(UTC)
风速15节,风向西转西南,有时为25节阵风
少量云层高于2500英尺, 积雨云.
多云层高于3000英尺
雷暴, 小雨
短暂存在
从 20日的 09点(UTC)到 20日的 12点(UTC)
风速15节,风向西转西南
少量云层高于2500英尺, 积雨云.
多云层高于3000英尺
雷暴, 小雨

TAF: LTAC 191040Z 1912/2012 VRB02KT 9999 SCT035 TEMPO 1914/1918 24015G25KT -TSRA FEW025CB BKN030 TEMPO 2009/2012 24015KT -TSRA FEW025CB BKN030

超过4000个机场的气象观测和天气预报(METAR&TAF报告)。

可查询的气象台以黄色和红色小点在地图上表示。

将鼠标移到小点上方,可查看气象台名称。

然后点击查看天气观测和预报。

如需切换地图:点击带黑十字的绿色按钮放大地图;点击带横线的绿色按钮缩小地图;或者点击绿色箭头查看邻近地区的地图。


METAR-TAF: